Woburn, Canada
Current Conditions -  °F | °C
As of 11:23 AM on Tuesday 21 Oct 2014 (Local Time) from CYSC Reporting Station
Overcast Overcast  
Wind Chill: 42°   Ceiling: 3500
Heat Index: 45°   Visibility: 9mi
Dew Point: 43°   Wind: 5mph
Humidity: 93%   Direction: 60°ENE
Pressure: 30.03"   Gusts: NA
Location:  45.38°N, 70.87°W
Report Text: CYSC 211523Z AUTO 06004KT 9SM OVC035 07/06 A3003 RMK SLP177
Loading
Personal Weather Stations






























Interactive Weather Map
Tropical Storm Tracking
New forecast layout! Learn more

10-Day Weather Forecast

Advertisements
Track Severe Weather on mobile